Time;durP1;ratioP1;P1;durP2;ratioP2;P2;SDS_P1;SDS_P2;PMS_P1;PMS_P2;Temp;Humidity;BMP_temperature;BMP_pressure;BME280_temperature;BME280_humidity;BME280_pressure;Samples;Min_cycle;Max_cycle;Signal;HPM_P1;HPM_P2
2022/01/03 00:00:23;;;;;;;1.00;1.00;;;13.70;99.90;;;;;;5042015;28;20264;-64
2022/01/03 00:02:50;;;;;;;1.30;1.20;;;13.70;99.90;;;;;;5036750;28;20207;-65
2022/01/03 00:05:17;;;;;;;1.00;1.00;;;13.70;99.90;;;;;;5028960;28;20256;-64
2022/01/03 00:07:46;;;;;;;0.80;0.80;;;13.70;99.90;;;;;;5031781;28;20208;-65
2022/01/03 00:10:16;;;;;;;0.90;0.90;;;13.70;99.90;;;;;;5029965;28;20211;-64
2022/01/03 00:12:43;;;;;;;0.93;0.93;;;13.70;99.90;;;;;;5031280;28;20251;-65
2022/01/03 00:15:14;;;;;;;0.90;0.90;;;13.70;99.90;;;;;;5029269;28;20303;-64
2022/01/03 00:17:41;;;;;;;0.90;0.90;;;13.70;99.90;;;;;;5031386;28;20603;-64
2022/01/03 00:20:10;;;;;;;1.30;1.20;;;13.70;99.90;;;;;;5031329;28;20201;-65
2022/01/03 00:22:41;;;;;;;0.90;0.90;;;13.70;99.90;;;;;;5030777;28;20211;-65
2022/01/03 00:25:16;;;;;;;1.00;1.00;;;13.70;99.90;;;;;;5027824;28;20311;-65
2022/01/03 00:27:49;;;;;;;1.03;1.03;;;13.70;99.90;;;;;;5029171;28;20201;-65
2022/01/03 00:30:21;;;;;;;0.90;0.90;;;13.70;99.90;;;;;;5026055;28;20723;-65
2022/01/03 00:32:50;;;;;;;0.90;0.90;;;13.70;99.90;;;;;;5031551;28;20199;-65
2022/01/03 00:35:17;;;;;;;1.00;1.00;;;13.70;99.90;;;;;;5031277;28;20223;-66
2022/01/03 00:37:45;;;;;;;0.98;0.98;;;13.90;99.90;;;;;;5031637;28;20288;-64
2022/01/03 00:40:13;;;;;;;0.73;0.73;;;13.70;99.90;;;;;;5027757;28;20251;-65
2022/01/03 00:42:40;;;;;;;1.00;1.00;;;13.70;99.90;;;;;;5029710;28;20201;-65
2022/01/03 00:45:09;;;;;;;1.03;1.03;;;13.60;99.90;;;;;;5029729;28;20652;-66
2022/01/03 00:47:38;;;;;;;0.80;0.80;;;13.60;99.90;;;;;;5031016;28;20239;-65
2022/01/03 00:50:09;;;;;;;0.90;0.90;;;13.60;99.90;;;;;;5030412;28;20579;-66
2022/01/03 00:52:36;;;;;;;0.83;0.83;;;13.60;99.90;;;;;;5029659;28;20680;-66
2022/01/03 00:55:03;;;;;;;0.70;0.70;;;13.60;99.90;;;;;;5030137;28;20708;-65
2022/01/03 00:57:51;;;;;;;1.23;0.90;;;13.60;99.90;;;;;;5030610;28;20207;-65
2022/01/03 01:00:19;;;;;;;0.70;0.70;;;13.50;99.90;;;;;;5028730;28;20699;-65
2022/01/03 01:02:51;;;;;;;0.70;0.70;;;13.50;99.90;;;;;;5031174;28;20235;-64
2022/01/03 01:05:21;;;;;;;0.88;0.88;;;13.50;99.90;;;;;;5029498;28;20235;-65
2022/01/03 01:07:49;;;;;;;0.80;0.80;;;13.50;99.90;;;;;;5031238;28;20207;-65
2022/01/03 01:10:16;;;;;;;1.00;0.77;;;13.50;99.90;;;;;;5035099;28;20208;-65
2022/01/03 01:12:46;;;;;;;0.80;0.80;;;13.50;99.90;;;;;;5043379;28;20658;-64
2022/01/03 01:15:15;;;;;;;0.90;0.90;;;13.50;99.90;;;;;;5035029;28;20278;-65
2022/01/03 01:17:42;;;;;;;0.93;0.93;;;13.50;99.90;;;;;;5036157;28;20208;-65
2022/01/03 01:20:15;;;;;;;0.80;0.80;;;13.50;99.90;;;;;;5041629;28;20239;-66
2022/01/03 01:22:42;;;;;;;0.73;0.73;;;13.50;99.90;;;;;;5035457;28;20236;-64
2022/01/03 01:27:45;;;;;;;0.67;0.67;;;13.50;99.90;;;;;;5043340;28;20264;-65
2022/01/03 01:28:12;;;;;;;1.00;1.00;;;13.50;99.90;;;;;;5035395;28;20587;-65
2022/01/03 01:30:40;;;;;;;0.80;0.80;;;13.50;99.90;;;;;;5036064;28;20224;-64
2022/01/03 01:33:11;;;;;;;0.80;0.80;;;13.60;99.90;;;;;;5037662;28;20215;-64
2022/01/03 01:35:43;;;;;;;0.93;0.93;;;13.60;99.90;;;;;;5039699;28;20263;-65
2022/01/03 01:38:12;;;;;;;1.00;1.00;;;13.60;99.90;;;;;;5033111;28;20804;-66
2022/01/03 01:40:45;;;;;;;0.80;0.80;;;13.60;99.90;;;;;;5034452;28;20291;-65
2022/01/03 01:43:14;;;;;;;1.13;1.00;;;13.60;99.90;;;;;;5034620;28;20196;-66
2022/01/03 01:45:43;;;;;;;0.90;0.90;;;13.70;99.90;;;;;;5033639;28;20311;-65
2022/01/03 01:48:12;;;;;;;0.77;0.77;;;13.70;99.90;;;;;;5033922;28;20226;-65
2022/01/03 01:50:42;;;;;;;0.70;0.70;;;13.60;99.90;;;;;;5034717;28;20192;-65
2022/01/03 01:53:09;;;;;;;0.80;0.80;;;13.60;99.90;;;;;;5034302;28;20212;-65
2022/01/03 01:55:40;;;;;;;0.90;0.90;;;13.60;99.90;;;;;;5034640;28;20307;-64
2022/01/03 01:58:20;;;;;;;0.98;0.98;;;13.60;99.90;;;;;;5034148;28;20911;-66
2022/01/03 02:00:58;;;;;;;0.93;0.87;;;13.70;99.90;;;;;;5038145;28;20231;-65
2022/01/03 02:03:32;;;;;;;1.00;0.90;;;13.70;99.90;;;;;;5034304;28;20240;-65
2022/01/03 02:06:19;;;;;;;0.63;0.63;;;13.70;99.90;;;;;;5034625;28;20668;-65
2022/01/03 02:08:56;;;;;;;0.67;0.67;;;13.70;99.90;;;;;;5035239;28;20289;-65
2022/01/03 02:11:33;;;;;;;1.00;1.00;;;13.60;99.90;;;;;;5032835;28;20577;-65
2022/01/03 02:14:00;;;;;;;0.90;0.90;;;13.60;99.90;;;;;;5032372;28;20232;-65
2022/01/03 02:16:27;;;;;;;0.80;0.80;;;13.60;99.90;;;;;;5035528;28;20221;-65
2022/01/03 02:18:54;;;;;;;0.70;0.70;;;13.60;99.90;;;;;;5042888;28;20301;-66
2022/01/03 02:21:22;;;;;;;1.00;1.00;;;13.70;99.90;;;;;;5054687;28;20211;-65
2022/01/03 02:23:49;;;;;;;1.03;1.00;;;13.60;99.90;;;;;;5052823;28;20212;-65
2022/01/03 02:26:16;;;;;;;1.13;1.03;;;13.60;99.90;;;;;;5050468;28;20301;-64
2022/01/03 02:28:43;;;;;;;0.90;0.90;;;13.60;99.90;;;;;;5048936;28;20227;-65
2022/01/03 02:31:10;;;;;;;0.90;0.90;;;13.60;99.90;;;;;;5035312;28;20240;-66
2022/01/03 02:33:38;;;;;;;0.83;0.83;;;13.60;99.90;;;;;;5036324;28;20231;-66
2022/01/03 02:36:05;;;;;;;1.00;0.93;;;13.60;99.90;;;;;;5034342;28;20311;-66
2022/01/03 02:38:34;;;;;;;1.30;1.20;;;13.60;99.90;;;;;;5034118;28;20200;-64
2022/01/03 02:41:01;;;;;;;0.80;0.80;;;13.60;99.90;;;;;;5034018;28;20205;-66
2022/01/03 02:43:28;;;;;;;1.10;1.00;;;13.50;99.90;;;;;;5045064;28;20213;-64
2022/01/03 02:45:55;;;;;;;0.95;0.95;;;13.60;99.90;;;;;;5055717;28;20275;-66
2022/01/03 02:48:22;;;;;;;1.00;1.00;;;13.50;99.90;;;;;;5055919;28;20212;-65
2022/01/03 02:50:50;;;;;;;0.80;0.80;;;13.60;99.90;;;;;;5056390;28;20197;-66
2022/01/03 02:53:17;;;;;;;1.17;1.07;;;13.60;99.90;;;;;;5055112;28;20235;-66
2022/01/03 02:55:45;;;;;;;1.10;1.00;;;13.60;99.90;;;;;;5050929;28;20225;-65
2022/01/03 02:58:12;;;;;;;1.10;1.10;;;13.50;99.90;;;;;;5037515;28;20205;-65
2022/01/03 03:00:45;;;;;;;0.90;0.90;;;13.50;99.90;;;;;;5033647;28;20211;-67
2022/01/03 03:03:12;;;;;;;1.40;1.30;;;13.50;99.90;;;;;;5033336;28;20293;-65
2022/01/03 03:05:39;;;;;;;1.10;1.10;;;13.50;99.90;;;;;;5041896;28;20510;-66
2022/01/03 03:08:06;;;;;;;1.20;1.10;;;13.50;99.90;;;;;;5054459;28;20264;-65
2022/01/03 03:10:33;;;;;;;1.13;1.03;;;13.50;99.90;;;;;;5054069;28;20212;-65
2022/01/03 03:13:01;;;;;;;1.20;1.10;;;13.50;99.90;;;;;;5044115;28;20287;-66
2022/01/03 03:15:28;;;;;;;0.87;0.87;;;13.50;99.90;;;;;;5032270;28;20303;-65
2022/01/03 03:17:55;;;;;;;0.90;0.90;;;13.50;99.90;;;;;;5032695;28;20205;-67
2022/01/03 03:20:24;;;;;;;1.10;1.10;;;13.50;99.90;;;;;;5032629;28;20712;-65
2022/01/03 03:22:52;;;;;;;0.90;0.90;;;13.50;99.90;;;;;;5031933;28;20201;-64
2022/01/03 03:25:20;;;;;;;0.90;0.90;;;13.50;99.90;;;;;;5032020;28;20362;-65
2022/01/03 03:27:50;;;;;;;0.80;0.80;;;13.50;99.90;;;;;;5032726;28;20211;-65
2022/01/03 03:30:21;;;;;;;1.00;1.00;;;13.50;99.90;;;;;;5033297;28;20204;-66
2022/01/03 03:32:50;;;;;;;1.00;0.90;;;13.50;99.90;;;;;;5033808;28;20311;-66
2022/01/03 03:35:18;;;;;;;1.10;1.10;;;13.50;99.90;;;;;;5033687;28;20220;-64
2022/01/03 03:37:45;;;;;;;0.90;0.90;;;13.50;99.90;;;;;;5065184;23;20231;-62
2022/01/03 03:40:13;;;;;;;1.00;1.00;;;13.50;99.90;;;;;;5072704;28;20204;-62
2022/01/03 03:42:41;;;;;;;1.10;1.10;;;13.50;99.90;;;;;;5071608;28;20207;-64
2022/01/03 03:45:09;;;;;;;0.90;0.90;;;13.50;99.90;;;;;;5071665;28;20280;-62
2022/01/03 03:47:37;;;;;;;0.97;0.97;;;13.50;99.90;;;;;;5067791;28;20227;-63
2022/01/03 03:50:05;;;;;;;0.87;0.87;;;13.60;99.90;;;;;;5068809;28;20298;-62
2022/01/03 03:52:32;;;;;;;1.03;1.03;;;13.60;99.90;;;;;;5071559;28;20289;-65
2022/01/03 03:54:59;;;;;;;1.43;1.33;;;13.60;99.90;;;;;;5071977;28;20235;-63
2022/01/03 03:57:27;;;;;;;1.23;1.13;;;13.60;99.90;;;;;;5072033;28;20310;-62
2022/01/03 03:59:54;;;;;;;0.80;0.80;;;13.60;99.90;;;;;;5072091;28;20210;-63
2022/01/03 04:02:21;;;;;;;1.10;1.10;;;13.60;99.90;;;;;;5072081;28;20616;-63
2022/01/03 04:04:49;;;;;;;1.13;1.13;;;13.60;99.90;;;;;;5071934;28;20249;-62
2022/01/03 04:07:16;;;;;;;0.90;0.90;;;13.60;99.90;;;;;;5071729;28;20814;-63
2022/01/03 04:09:43;;;;;;;1.00;1.00;;;13.60;99.90;;;;;;5071640;28;20298;-62
2022/01/03 04:12:10;;;;;;;1.23;1.13;;;13.60;99.90;;;;;;5071675;28;20294;-63
2022/01/03 04:14:37;;;;;;;1.20;1.10;;;13.60;99.90;;;;;;5074186;28;20222;-63
2022/01/03 04:17:04;;;;;;;1.27;1.17;;;13.60;99.90;;;;;;5076285;28;20230;-62
2022/01/03 04:19:31;;;;;;;1.10;1.10;;;13.50;99.90;;;;;;5074726;28;20203;-63
2022/01/03 04:21:59;;;;;;;1.00;1.00;;;13.50;99.90;;;;;;5073686;28;20234;-63
2022/01/03 04:24:26;;;;;;;0.97;0.97;;;13.50;99.90;;;;;;5074069;28;20207;-63
2022/01/03 04:26:53;;;;;;;1.20;1.13;;;13.50;99.90;;;;;;5073415;28;20260;-62
2022/01/03 04:29:20;;;;;;;0.83;0.83;;;13.50;99.90;;;;;;5072337;28;20294;-63
2022/01/03 04:31:47;;;;;;;1.00;0.90;;;13.50;99.90;;;;;;5071958;28;20263;-62
2022/01/03 04:34:14;;;;;;;1.00;1.00;;;13.40;99.90;;;;;;5072462;28;20230;-63
2022/01/03 04:36:41;;;;;;;1.13;1.10;;;13.50;99.90;;;;;;5071980;28;20206;-61
2022/01/03 04:39:10;;;;;;;1.10;1.00;;;13.40;99.90;;;;;;5071748;28;20393;-63
2022/01/03 04:41:37;;;;;;;0.90;0.90;;;13.40;99.90;;;;;;5073367;28;20298;-63
2022/01/03 04:44:06;;;;;;;1.00;1.00;;;13.40;99.90;;;;;;5076615;28;20298;-63
2022/01/03 04:46:33;;;;;;;1.20;1.10;;;13.30;99.90;;;;;;5076643;28;20234;-62
2022/01/03 04:49:00;;;;;;;1.10;1.00;;;13.30;99.90;;;;;;5075377;28;20223;-63
2022/01/03 04:51:27;;;;;;;1.13;1.03;;;13.30;99.90;;;;;;5075788;28;20199;-62
2022/01/03 04:53:54;;;;;;;0.90;0.90;;;13.30;99.90;;;;;;5075093;28;20298;-64
2022/01/03 04:56:22;;;;;;;1.17;1.07;;;13.30;99.90;;;;;;5075087;28;20179;-63
2022/01/03 04:58:49;;;;;;;1.43;1.10;;;13.20;99.90;;;;;;5075103;28;20935;-63
2022/01/03 05:01:16;;;;;;;0.90;0.90;;;13.20;99.90;;;;;;5074732;28;20303;-64
2022/01/03 05:03:43;;;;;;;0.70;0.70;;;13.20;99.90;;;;;;5074708;28;20242;-64
2022/01/03 05:06:10;;;;;;;1.30;1.20;;;13.30;99.90;;;;;;5074672;28;20223;-62
2022/01/03 05:08:37;;;;;;;1.07;1.07;;;13.20;99.90;;;;;;5074678;28;20225;-61
2022/01/03 05:11:04;;;;;;;1.30;1.20;;;13.20;99.90;;;;;;5074296;28;20239;-62
2022/01/03 05:13:32;;;;;;;1.30;1.20;;;13.10;99.90;;;;;;5074722;28;20243;-64
2022/01/03 05:16:01;;;;;;;1.03;1.03;;;13.10;99.90;;;;;;5074691;28;20226;-62
2022/01/03 05:18:29;;;;;;;0.90;0.90;;;13.10;99.90;;;;;;5074901;28;20223;-61
2022/01/03 05:20:56;;;;;;;1.30;1.20;;;13.00;99.90;;;;;;5074536;28;20301;-63
2022/01/03 05:23:23;;;;;;;1.30;1.20;;;13.00;99.90;;;;;;5073932;28;20207;-63
2022/01/03 05:25:50;;;;;;;1.33;1.23;;;13.10;99.90;;;;;;5074523;28;20577;-62
2022/01/03 05:28:17;;;;;;;1.00;1.00;;;13.00;99.90;;;;;;5074315;28;20314;-62
2022/01/03 05:30:46;;;;;;;1.17;1.00;;;13.00;99.90;;;;;;5074272;28;20271;-62
2022/01/03 05:33:13;;;;;;;1.00;1.00;;;13.10;99.90;;;;;;5073880;28;20290;-62
2022/01/03 05:35:40;;;;;;;1.10;1.10;;;13.00;99.90;;;;;;5074375;28;20199;-62
2022/01/03 05:38:07;;;;;;;1.40;1.20;;;13.00;99.90;;;;;;5073677;28;20801;-63
2022/01/03 05:40:34;;;;;;;1.10;1.10;;;13.00;99.90;;;;;;5073960;28;20667;-64
2022/01/03 05:43:01;;;;;;;1.03;0.93;;;13.00;99.90;;;;;;5073674;28;20231;-63
2022/01/03 05:45:28;;;;;;;1.10;1.00;;;13.10;99.90;;;;;;5073298;28;20230;-63
2022/01/03 05:47:56;;;;;;;0.90;0.90;;;13.00;99.90;;;;;;5073617;28;20221;-63
2022/01/03 05:50:24;;;;;;;1.10;1.00;;;13.00;99.90;;;;;;5074046;28;20295;-62
2022/01/03 05:52:51;;;;;;;1.23;1.13;;;13.10;99.90;;;;;;5073288;28;20207;-63
2022/01/03 05:55:20;;;;;;;1.03;1.03;;;13.10;99.90;;;;;;5073556;28;20294;-63
2022/01/03 05:57:47;;;;;;;0.90;0.90;;;13.10;99.90;;;;;;5073630;28;20222;-62
2022/01/03 06:00:16;;;;;;;1.10;1.10;;;13.10;99.90;;;;;;5073842;28;20294;-63
2022/01/03 06:02:43;;;;;;;1.03;1.00;;;13.10;99.90;;;;;;5073407;28;20742;-63
2022/01/03 06:05:19;;;;;;;0.90;0.90;;;13.10;99.90;;;;;;5073200;28;20233;-63
2022/01/03 06:07:47;;;;;;;0.80;0.80;;;13.10;99.90;;;;;;5073769;28;20305;-63
2022/01/03 06:10:16;;;;;;;0.77;0.77;;;13.20;99.90;;;;;;5073381;28;20203;-63
2022/01/03 06:12:45;;;;;;;1.00;1.00;;;13.20;99.90;;;;;;5073201;28;20207;-63
2022/01/03 06:15:15;;;;;;;1.20;1.20;;;13.20;99.90;;;;;;5073649;28;20285;-63
2022/01/03 06:17:42;;;;;;;1.00;1.00;;;13.10;99.90;;;;;;5073530;28;20713;-64
2022/01/03 06:20:12;;;;;;;1.00;1.00;;;13.10;99.90;;;;;;5073803;28;20203;-64
2022/01/03 06:22:40;;;;;;;1.00;1.00;;;13.10;99.90;;;;;;5072651;28;20635;-63
2022/01/03 06:25:08;;;;;;;1.00;1.00;;;13.10;99.90;;;;;;5073362;28;20215;-62
2022/01/03 06:27:35;;;;;;;0.93;0.93;;;13.10;99.90;;;;;;5073117;28;20314;-64
2022/01/03 06:30:02;;;;;;;0.90;0.90;;;13.10;99.90;;;;;;5073133;28;20203;-63
2022/01/03 06:32:29;;;;;;;1.20;1.10;;;13.10;99.90;;;;;;5069472;28;20243;-64
2022/01/03 06:34:56;;;;;;;1.50;1.40;;;13.00;99.90;;;;;;5072487;28;20302;-62
2022/01/03 06:37:24;;;;;;;1.10;1.10;;;13.10;99.90;;;;;;5067716;28;20219;-63
2022/01/03 06:39:51;;;;;;;1.03;1.03;;;13.10;99.90;;;;;;5070728;28;20568;-63
2022/01/03 06:42:18;;;;;;;1.43;1.33;;;13.10;99.90;;;;;;5072526;28;20200;-63
2022/01/03 06:44:46;;;;;;;1.00;1.00;;;13.10;99.90;;;;;;5072601;28;20217;-63
2022/01/03 06:47:13;;;;;;;0.90;0.90;;;13.10;99.90;;;;;;5072510;28;20694;-64
2022/01/03 06:49:40;;;;;;;0.97;0.97;;;13.20;99.90;;;;;;5072704;28;20207;-63
2022/01/03 06:52:07;;;;;;;0.97;0.97;;;13.20;99.90;;;;;;5071851;28;20261;-64
2022/01/03 06:54:35;;;;;;;1.43;1.33;;;13.20;99.90;;;;;;5072966;28;20204;-62
2022/01/03 06:57:03;;;;;;;1.50;1.00;;;13.20;99.90;;;;;;5067190;28;20234;-63
2022/01/03 06:59:30;;;;;;;1.30;1.20;;;13.20;99.90;;;;;;5073409;28;20208;-62
2022/01/03 07:01:57;;;;;;;1.03;1.03;;;13.20;99.90;;;;;;5067649;28;20654;-62
2022/01/03 07:04:24;;;;;;;1.53;1.43;;;13.10;99.90;;;;;;5072422;28;20231;-63
2022/01/03 07:06:50;;;;;;;1.33;1.23;;;13.20;99.90;;;;;;5077535;28;20229;-61
2022/01/03 07:09:17;;;;;;;1.27;1.17;;;13.20;99.90;;;;;;5084405;28;20287;-64
2022/01/03 07:11:46;;;;;;;1.27;1.15;;;13.10;99.90;;;;;;5085743;28;20234;-64
2022/01/03 07:19:46;;;;;;;1.13;1.10;;;13.10;99.90;;;;;;5052548;28;20234;-62
2022/01/03 07:22:13;;;;;;;1.00;1.00;;;13.10;99.90;;;;;;5051242;28;20303;-62
2022/01/03 07:24:41;;;;;;;1.20;1.10;;;13.10;99.90;;;;;;5052146;28;20203;-64
2022/01/03 07:27:11;;;;;;;1.10;1.03;;;13.10;99.90;;;;;;5052738;28;20249;-63
2022/01/03 07:29:39;;;;;;;1.00;0.90;;;13.10;99.90;;;;;;5061624;28;20235;-64
2022/01/03 07:32:07;;;;;;;1.63;1.13;;;13.10;99.90;;;;;;5076185;28;20263;-64
2022/01/03 07:34:34;;;;;;;1.17;1.07;;;13.20;99.90;;;;;;5081107;28;20262;-62
2022/01/03 07:37:01;;;;;;;1.30;1.20;;;13.20;99.90;;;;;;5084707;28;20209;-62
2022/01/03 07:39:30;;;;;;;1.00;1.00;;;13.20;99.90;;;;;;5073884;28;20282;-62
2022/01/03 07:41:57;;;;;;;1.00;1.00;;;13.20;99.90;;;;;;5072299;28;20298;-63
2022/01/03 07:44:25;;;;;;;1.20;1.20;;;13.20;99.90;;;;;;5072513;28;20203;-62
2022/01/03 07:46:54;;;;;;;1.03;1.03;;;13.20;99.90;;;;;;5066395;28;20672;-63
2022/01/03 07:49:21;;;;;;;1.00;1.00;;;13.20;99.90;;;;;;5053071;28;20239;-63
2022/01/03 07:51:48;;;;;;;1.00;1.00;;;13.20;99.90;;;;;;5054861;28;20212;-63
2022/01/03 07:54:15;;;;;;;1.90;1.80;;;13.20;99.90;;;;;;5054254;28;20210;-64
2022/01/03 07:56:42;;;;;;;1.33;1.23;;;13.20;99.90;;;;;;5052047;28;20220;-64
2022/01/03 07:59:09;;;;;;;1.27;1.20;;;13.20;99.90;;;;;;5051555;28;20281;-64
2022/01/03 08:01:40;;;;;;;1.03;1.03;;;13.30;99.90;;;;;;5062146;28;20203;-64
2022/01/03 08:04:07;;;;;;;1.23;1.13;;;13.30;99.90;;;;;;5085210;28;20187;-63
2022/01/03 08:06:34;;;;;;;1.20;1.10;;;13.30;99.90;;;;;;5086811;28;20254;-64
2022/01/03 08:09:01;;;;;;;0.80;0.80;;;13.30;99.90;;;;;;5089764;28;20235;-63
2022/01/03 08:11:28;;;;;;;0.97;0.97;;;13.30;99.90;;;;;;5081437;28;20203;-63
2022/01/03 08:13:55;;;;;;;1.10;1.10;;;13.30;99.90;;;;;;5081948;28;20231;-63
2022/01/03 08:16:22;;;;;;;1.00;1.00;;;13.30;99.90;;;;;;5073559;28;20631;-63
2022/01/03 08:18:50;;;;;;;1.15;1.13;;;13.30;99.90;;;;;;5080975;28;20719;-63
2022/01/03 08:21:17;;;;;;;0.90;0.90;;;13.40;99.90;;;;;;5077460;28;20620;-62
2022/01/03 08:23:44;;;;;;;1.10;1.10;;;13.30;99.90;;;;;;5075831;28;20248;-63
2022/01/03 08:26:11;;;;;;;1.13;1.13;;;13.40;99.90;;;;;;5075563;28;20294;-63
2022/01/03 08:28:37;;;;;;;1.00;0.90;;;13.40;99.90;;;;;;5076111;28;20242;-63
2022/01/03 08:31:04;;;;;;;1.03;1.00;;;13.40;99.90;;;;;;5075783;28;20286;-61
2022/01/03 08:33:33;;;;;;;1.10;1.10;;;13.40;99.90;;;;;;5075401;28;20203;-62
2022/01/03 08:36:01;;;;;;;0.80;0.80;;;13.40;99.90;;;;;;5075663;28;20274;-63
2022/01/03 08:38:28;;;;;;;0.87;0.87;;;13.40;99.90;;;;;;5076133;28;20241;-63
2022/01/03 08:40:55;;;;;;;0.97;0.97;;;13.50;99.90;;;;;;5076917;28;20207;-62
2022/01/03 08:43:23;;;;;;;0.90;0.90;;;13.50;99.90;;;;;;5075352;28;20230;-63
2022/01/03 08:45:50;;;;;;;1.37;1.00;;;13.50;99.90;;;;;;5075418;28;20639;-63
2022/01/03 08:48:17;;;;;;;0.90;0.90;;;13.50;99.90;;;;;;5074640;28;20233;-62
2022/01/03 08:50:44;;;;;;;1.20;1.10;;;13.50;99.90;;;;;;5074884;28;20208;-62
2022/01/03 08:53:12;;;;;;;0.80;0.80;;;13.50;99.90;;;;;;5074292;28;20207;-64
2022/01/03 08:55:40;;;;;;;1.13;1.03;;;13.50;99.90;;;;;;5074511;28;20518;-62
2022/01/03 08:58:07;;;;;;;1.00;1.00;;;13.60;99.90;;;;;;5074715;28;20311;-64
2022/01/03 09:00:35;;;;;;;1.00;1.00;;;13.60;99.90;;;;;;5074629;28;20743;-64
2022/01/03 09:03:02;;;;;;;1.20;1.10;;;13.60;99.90;;;;;;5074611;28;20209;-64
2022/01/03 09:05:29;;;;;;;1.33;1.10;;;13.50;99.90;;;;;;5066394;28;20212;-63
2022/01/03 09:07:56;;;;;;;1.07;1.03;;;13.60;99.90;;;;;;5056955;28;20251;-62
2022/01/03 09:10:24;;;;;;;1.10;1.07;;;13.60;99.90;;;;;;5056179;28;20211;-62
2022/01/03 09:12:51;;;;;;;1.30;1.20;;;13.60;99.90;;;;;;5056868;28;20290;-64
2022/01/03 09:15:18;;;;;;;1.03;1.03;;;13.60;99.90;;;;;;5056183;28;20236;-63
2022/01/03 09:17:45;;;;;;;1.60;1.50;;;13.60;99.90;;;;;;5057557;28;20303;-62
2022/01/03 09:20:12;;;;;;;1.90;1.80;;;13.80;99.90;;;;;;5056964;28;20294;-63
2022/01/03 09:22:43;;;;;;;2.20;2.10;;;13.60;99.90;;;;;;5056019;28;20228;-63
2022/01/03 09:30:40;;;;;;;1.40;1.40;;;13.50;99.90;;;;;;5056908;28;20581;-64
2022/01/03 09:33:07;;;;;;;1.40;1.40;;;13.50;99.90;;;;;;5059572;28;20655;-63
2022/01/03 09:35:34;;;;;;;1.70;1.60;;;13.40;99.90;;;;;;5056064;28;20200;-64
2022/01/03 09:38:01;;;;;;;1.80;1.70;;;13.50;99.90;;;;;;5057552;28;20238;-62
2022/01/03 09:40:28;;;;;;;1.70;1.60;;;13.40;99.90;;;;;;5060362;28;20227;-61
2022/01/03 09:43:00;;;;;;;1.30;1.30;;;13.50;99.90;;;;;;5058918;28;20302;-61
2022/01/03 09:45:32;;;;;;;1.60;1.50;;;13.50;99.90;;;;;;5059190;28;20250;-62
2022/01/03 09:48:00;;;;;;;1.20;1.17;;;13.50;99.90;;;;;;5058014;28;20311;-63
2022/01/03 09:50:27;;;;;;;1.30;1.10;;;13.60;99.90;;;;;;5058483;28;20204;-64
2022/01/03 09:52:56;;;;;;;0.97;0.97;;;13.60;99.90;;;;;;5062548;28;20295;-62
2022/01/03 09:55:23;;;;;;;1.23;1.23;;;13.60;99.90;;;;;;5073251;28;20694;-63
2022/01/03 09:57:50;;;;;;;1.20;1.20;;;13.60;99.90;;;;;;5073237;28;20222;-63
2022/01/03 10:00:22;;;;;;;1.00;1.00;;;13.70;99.90;;;;;;5076831;28;20227;-62
2022/01/03 10:02:50;;;;;;;1.23;1.20;;;13.70;99.90;;;;;;5068863;28;20652;-63
2022/01/03 10:05:17;;;;;;;1.00;1.00;;;13.80;99.90;;;;;;5070035;28;20200;-63
2022/01/03 10:07:44;;;;;;;1.23;1.20;;;13.80;99.90;;;;;;5073680;28;20224;-62
2022/01/03 10:10:12;;;;;;;1.10;1.10;;;13.80;99.90;;;;;;5068097;28;20199;-62
2022/01/03 10:12:40;;;;;;;1.07;1.03;;;13.80;99.90;;;;;;5059053;28;20224;-63
2022/01/03 10:15:09;;;;;;;1.10;1.10;;;13.80;99.90;;;;;;5060138;28;20218;-63
2022/01/03 10:17:39;;;;;;;1.00;1.00;;;13.90;99.90;;;;;;5070031;28;20267;-62
2022/01/03 10:20:10;;;;;;;1.23;1.20;;;13.90;99.90;;;;;;5075728;28;20663;-63
2022/01/03 10:22:38;;;;;;;1.57;1.20;;;13.80;99.90;;;;;;5074736;28;20298;-62
2022/01/03 10:25:12;;;;;;;1.00;1.00;;;13.80;99.90;;;;;;5070908;28;20302;-63
2022/01/03 10:27:50;;;;;;;1.10;1.10;;;13.80;99.90;;;;;;5075122;28;20226;-63
2022/01/03 10:30:31;;;;;;;0.82;0.82;;;13.80;99.90;;;;;;5075284;28;20265;-64
2022/01/03 10:33:00;;;;;;;0.90;0.90;;;13.80;99.90;;;;;;5074976;28;20249;-63
2022/01/03 10:35:27;;;;;;;1.10;1.10;;;13.80;99.90;;;;;;5075041;28;20203;-62
2022/01/03 10:37:54;;;;;;;0.90;0.90;;;13.80;99.90;;;;;;5075059;28;20227;-63
2022/01/03 10:40:28;;;;;;;1.17;1.10;;;13.90;99.90;;;;;;5074817;28;20207;-63
2022/01/03 10:42:56;;;;;;;1.20;1.20;;;13.90;99.90;;;;;;5074426;28;20237;-63
2022/01/03 10:45:31;;;;;;;1.00;1.00;;;13.90;99.90;;;;;;5074451;28;20207;-63
2022/01/03 10:48:00;;;;;;;1.20;1.10;;;13.90;99.90;;;;;;5074914;28;20662;-62
2022/01/03 10:50:28;;;;;;;1.00;1.00;;;13.90;99.90;;;;;;5074603;28;20767;-62
2022/01/03 10:52:55;;;;;;;1.10;1.10;;;13.90;99.90;;;;;;5075159;28;20238;-63
2022/01/03 10:55:25;;;;;;;1.00;0.90;;;14.00;99.90;;;;;;5074516;28;20236;-64
2022/01/03 10:57:55;;;;;;;0.80;0.80;;;13.90;99.90;;;;;;5074365;28;20231;-61
2022/01/03 11:00:26;;;;;;;1.17;1.13;;;14.00;99.90;;;;;;5073776;28;20257;-63
2022/01/03 11:03:27;;;;;;;0.80;0.80;;;14.00;99.90;;;;;;5070844;28;20685;-62
2022/01/03 11:05:59;;;;;;;0.90;0.90;;;14.00;99.90;;;;;;5038018;28;20200;-63
2022/01/03 11:11:14;;;;;;;1.00;1.00;;;14.00;99.90;;;;;;5063864;28;20576;-62
2022/01/03 11:13:42;;;;;;;1.10;1.00;;;14.00;99.90;;;;;;5058179;28;20204;-63
2022/01/03 11:16:11;;;;;;;0.93;0.93;;;14.00;99.90;;;;;;5057604;28;20199;-62
2022/01/03 11:18:44;;;;;;;0.90;0.90;;;14.00;99.90;;;;;;5055441;28;20307;-62
2022/01/03 11:21:13;;;;;;;0.80;0.80;;;14.00;99.90;;;;;;5056469;28;20199;-62
2022/01/03 11:23:42;;;;;;;0.87;0.87;;;14.10;99.90;;;;;;5056275;28;20725;-63
2022/01/03 11:26:11;;;;;;;0.90;0.90;;;14.10;99.90;;;;;;5058063;28;20233;-63
2022/01/03 11:28:39;;;;;;;0.80;0.80;;;14.10;99.90;;;;;;5056920;28;20319;-63
2022/01/03 11:31:07;;;;;;;1.00;1.00;;;14.10;99.90;;;;;;5060891;28;20689;-63
2022/01/03 11:33:35;;;;;;;0.93;0.90;;;14.20;99.90;;;;;;5071723;28;20217;-62
2022/01/03 11:36:05;;;;;;;0.90;0.90;;;14.20;99.90;;;;;;5062528;28;20293;-62
2022/01/03 11:38:36;;;;;;;0.87;0.87;;;14.30;99.90;;;;;;5062706;28;20310;-62
2022/01/03 11:41:06;;;;;;;0.90;0.90;;;14.30;99.90;;;;;;5065536;28;20643;-62
2022/01/03 11:43:35;;;;;;;0.93;0.93;;;14.30;99.90;;;;;;5066164;28;20290;-63
2022/01/03 11:46:02;;;;;;;0.82;0.82;;;14.30;99.90;;;;;;5062041;28;20200;-63
2022/01/03 11:48:29;;;;;;;0.80;0.80;;;14.40;99.90;;;;;;5060164;28;20223;-63
2022/01/03 11:50:58;;;;;;;0.80;0.80;;;14.40;99.90;;;;;;5061809;28;20550;-62
2022/01/03 11:53:27;;;;;;;1.07;0.80;;;14.40;99.90;;;;;;5060594;28;20207;-62
2022/01/03 11:55:56;;;;;;;0.80;0.80;;;14.50;99.90;;;;;;5064427;28;20196;-62
2022/01/03 11:58:52;;;;;;;0.90;0.90;;;14.40;99.90;;;;;;5059410;28;20212;-62
2022/01/03 12:04:11;;;;;;;0.70;0.70;;;14.30;99.90;;;;;;5076934;28;20210;-61
2022/01/03 12:06:38;;;;;;;0.80;0.80;;;14.30;99.90;;;;;;5082962;28;20233;-62
2022/01/03 12:09:09;;;;;;;0.70;0.70;;;14.40;99.90;;;;;;5077374;28;20270;-63
2022/01/03 12:11:44;;;;;;;0.90;0.90;;;14.40;99.90;;;;;;5078938;28;20200;-66
2022/01/03 12:14:16;;;;;;;0.80;0.80;;;14.40;99.90;;;;;;5087585;28;20450;-62
2022/01/03 12:16:45;;;;;;;0.70;0.70;;;14.40;99.90;;;;;;5086335;28;20226;-62
2022/01/03 12:19:14;;;;;;;0.73;0.73;;;14.50;99.90;;;;;;5078304;28;20215;-64
2022/01/03 12:21:59;;;;;;;0.90;0.90;;;14.60;99.90;;;;;;5080604;28;20231;-63
2022/01/03 12:24:49;;;;;;;1.13;1.02;;;14.60;99.90;;;;;;5087618;28;20198;-63
2022/01/03 12:27:40;;;;;;;1.20;1.10;;;14.50;99.90;;;;;;5077476;28;20334;-62
2022/01/03 12:30:23;;;;;;;0.80;0.80;;;14.40;99.90;;;;;;5084913;28;20266;-64
2022/01/03 12:33:11;;;;;;;0.90;0.90;;;14.40;99.90;;;;;;5094671;28;20211;-62
2022/01/03 12:35:40;;;;;;;1.00;1.00;;;14.30;99.90;;;;;;5089882;28;20226;-63
2022/01/03 12:38:14;;;;;;;0.73;0.73;;;14.30;99.90;;;;;;5080871;28;20251;-62
2022/01/03 12:40:52;;;;;;;0.93;0.90;;;14.20;99.90;;;;;;5081244;28;20203;-62
2022/01/03 12:43:20;;;;;;;0.70;0.70;;;14.20;99.90;;;;;;5085219;28;20568;-62
2022/01/03 12:45:53;;;;;;;0.87;0.87;;;14.20;99.90;;;;;;5086332;28;20234;-62
2022/01/03 12:48:22;;;;;;;0.80;0.80;;;14.20;99.90;;;;;;5085738;28;20309;-61
2022/01/03 12:51:12;;;;;;;0.70;0.70;;;14.10;99.90;;;;;;5086080;28;20202;-61
2022/01/03 12:53:42;;;;;;;0.80;0.80;;;14.10;99.90;;;;;;5085012;28;20198;-63
2022/01/03 12:56:12;;;;;;;0.87;0.87;;;14.20;99.90;;;;;;5091640;28;20207;-61
2022/01/03 12:58:45;;;;;;;0.63;0.63;;;14.20;99.90;;;;;;5099469;28;20250;-62
2022/01/03 13:01:31;;;;;;;0.63;0.63;;;14.10;99.90;;;;;;5094003;28;20258;-60
2022/01/03 13:04:19;;;;;;;0.77;0.77;;;14.20;99.90;;;;;;5095915;28;20203;-63
2022/01/03 13:06:46;;;;;;;0.80;0.80;;;14.20;99.90;;;;;;5088931;28;20298;-62
2022/01/03 13:09:14;;;;;;;0.60;0.60;;;14.10;99.90;;;;;;5097818;28;20222;-61
2022/01/03 13:11:44;;;;;;;0.60;0.60;;;14.10;99.90;;;;;;5097967;28;20294;-62
2022/01/03 13:14:15;;;;;;;0.80;0.80;;;14.10;99.90;;;;;;5098267;28;20211;-61